Página principal
METAR-TAF:

METAR-TAF

Aeroportos :

Porto Santo, Portugal

Aeroporto do Porto Santo

latitude: 33-04N, longitude: 016-21W, altura: 97 m

Observação actual do tempo

O boletim foi feito há 15 minutos, às 01:30 UTC
Vento 10 kt de oes-noroeste
Temperatura 21°C
Humidade 73%
Pressão 1022 hPa
Visibilidade 10 km ou mais
Nuvens dispersasa uma altura de 1400 ft

METAR: LPPS 180130Z 30010KT 9999 SCT014 21/16 Q1022

Hora: 02:45 (01:45 UTC)

Previsão

O boletim foi feito há 2 horas e 15 minutos, às 23:30 UTC
Previsão válida de 18 às 00 UTC a 19 às 06 UTC
Vento 13 kt de noroeste
Visibilidade 10 km ou mais
Nuvens dispersasa uma altura de 1500 ft
Probabilidade 30% :
Temporariamente
de 18 às 00 UTC a 18 às 12 UTC
Visibilidade: 8000 m
Nuvens fragmentadasa uma altura de 1200 ft
Poucas nuvensa uma altura de 1600 ft, Cumulus congestus.
aguaceiros de chuva

TAF: LPPS 172330Z 1800/1906 31013KT 9999 SCT015 PROB30 TEMPO 1800/1812 8000 SHRA BKN012 FEW016TCU

Observações e previsões do tempo de mais de 4000 aeroportos (mensagens METAR e TAF).

As estações disponíveis são os pontos amarelos e vermelhos sobre o mapa.

Mova o rato sobre o mapa para ver o nome da estação.

Depois clique no ponto para visualizar as observações e previsões meteorológicas.

Para alterar o mapa : clique nos botões verdes com uma cruz preta para aumentar o zoom; no botão verde com uma pitada de zoom; ou nas setas verdes para mapas adjacentes.


METAR-TAF: